ADDS METAR Data INFO
IDs: Format: Raw Decoded Include TAF

Data at: 2032 UTC 20 Jul 2018

KICL 202015Z AUTO 33008G15KT 310V010 10SM CLR 29/19 A2994 RMK AO2
KICL 201955Z AUTO 36009G15KT 10SM CLR 29/19 A2993 RMK AO2
KICL 201935Z AUTO 34009G14KT 10SM CLR 29/18 A2994 RMK AO2
KICL 201915Z AUTO 35008G14KT 10SM CLR 29/19 A2994 RMK AO2
KICL 201855Z AUTO 33009G15KT 300V010 10SM CLR 28/19 A2994 RMK AO2
KICL 201835Z AUTO VRB06KT 10SM CLR 29/19 A2994 RMK AO2
KICL 201815Z AUTO 33007G15KT 10SM CLR 28/18 A2995 RMK AO2
KICL 201755Z AUTO 33008G13KT 310V010 10SM CLR 28/19 A2993 RMK AO2
KICL 201735Z AUTO 36010G15KT 330V030 10SM CLR 28/18 A2993 RMK AO2
KICL 201715Z AUTO 35011KT 10SM CLR 27/18 A2993 RMK AO2
KICL 201655Z AUTO 34008G13KT 320V040 10SM CLR 27/18 A2993 RMK AO2
KICL 201635Z AUTO 35007G13KT 10SM CLR 26/18 A2992 RMK AO2
KICL 201615Z AUTO 32008G14KT 10SM CLR 26/18 A2992 RMK AO2
KICL 201555Z AUTO 35008KT 310V010 10SM CLR 26/17 A2992 RMK AO2
KICL 201535Z AUTO 35009KT 10SM CLR 26/17 A2993 RMK AO2
KICL 201515Z AUTO 33009KT 10SM CLR 25/17 A2993 RMK AO2
KICL 201455Z AUTO 36009KT 10SM CLR 25/17 A2992 RMK AO2
KICL 201435Z AUTO 36010G17KT 10SM CLR 24/17 A2992 RMK AO2
KICL 201415Z AUTO 01006KT 10SM CLR 24/18 A2991 RMK AO2
KICL 201355Z AUTO 01005KT 10SM CLR 23/18 A2991 RMK AO2
KICL 201335Z AUTO 02006KT 10SM CLR 22/18 A2991 RMK AO2
KICL 201315Z AUTO 36004KT 10SM CLR 21/17 A2991 RMK AO2
KICL 201255Z AUTO 35005KT 10SM CLR 20/17 A2991 RMK AO2
KICL 201235Z AUTO VRB05KT 10SM CLR 20/16 A2992 RMK AO2
KICL 201215Z AUTO 00000KT 10SM CLR 19/16 A2990 RMK AO2
KICL 201155Z AUTO 00000KT 10SM CLR 17/16 A2990 RMK AO2
KICL 201135Z AUTO 00000KT 10SM CLR 17/16 A2989 RMK AO2
KICL 201115Z AUTO 00000KT 10SM CLR 17/16 A2989 RMK AO2
KICL 201055Z AUTO 00000KT 10SM CLR 18/16 A2989 RMK AO2
KICL 201035Z AUTO 00000KT 10SM CLR 19/16 A2988 RMK AO2
KICL 201015Z AUTO 30003KT 10SM CLR 19/16 A2988 RMK AO2
KICL 200955Z AUTO 00000KT 10SM CLR 20/16 A2988 RMK AO2
KICL 200935Z AUTO 32004KT 10SM CLR 20/16 A2988 RMK AO2
KICL 200915Z AUTO 30004KT 10SM CLR 20/17 A2988 RMK AO2
KICL 200855Z AUTO 30004KT 10SM CLR 20/17 A2988 RMK AO2
KICL 200835Z AUTO 28005KT 10SM CLR 20/17 A2987 RMK AO2
KICL 200815Z AUTO 28005KT 10SM CLR 18/17 A2987 RMK AO2
KICL 200755Z AUTO 00000KT 10SM CLR 18/17 A2987 RMK AO2
KICL 200735Z AUTO 00000KT 10SM CLR 19/17 A2986 RMK AO2
KICL 200715Z AUTO 00000KT 10SM CLR 21/17 A2986 RMK AO2
KICL 200655Z AUTO 30004KT 10SM CLR 21/17 A2986 RMK AO2
KICL 200635Z AUTO 30005KT 10SM CLR 23/17 A2986 RMK AO2
KICL 200615Z AUTO 32005KT 10SM CLR 23/19 A2985 RMK AO2
KICL 200555Z AUTO 32006KT 10SM CLR 23/20 A2985 RMK AO2
KICL 200535Z AUTO 31004KT 10SM CLR 23/21 A2985 RMK AO2
KICL 200515Z AUTO 27003KT 10SM CLR 22/21 A2985 RMK AO2
KICL 200455Z AUTO 27004KT 10SM CLR 22/21 A2984 RMK AO2
KICL 200435Z AUTO 26005KT 10SM CLR 22/20 A2984 RMK AO2
KICL 200415Z AUTO 28004KT 10SM CLR 22/21 A2984 RMK AO2
KICL 200355Z AUTO 29003KT 10SM CLR 22/21 A2984 RMK AO2
KICL 200335Z AUTO 26005KT 10SM CLR 24/21 A2984 RMK AO2
KICL 200315Z AUTO 26005KT 10SM CLR 24/21 A2984 RMK AO2
KICL 200255Z AUTO 26006KT 10SM CLR 24/21 A2983 RMK AO2
KICL 200235Z AUTO 26005KT 10SM CLR 23/21 A2982 RMK AO2
KICL 200215Z AUTO 25004KT 10SM CLR 23/21 A2982 RMK AO2
KICL 200155Z AUTO 23003KT 10SM CLR 24/22 A2981 RMK AO2
KICL 200135Z AUTO 25003KT 10SM CLR 26/22 A2981 RMK AO2
KICL 200115Z AUTO 26003KT 10SM CLR 27/22 A2981 RMK AO2
KICL 200055Z AUTO 29005KT 10SM CLR 28/22 A2981 RMK AO2
KICL 200035Z AUTO VRB05KT 10SM CLR 29/22 A2981 RMK AO2
KICL 200015Z AUTO 29005KT 10SM CLR 29/22 A2980 RMK AO2
KICL 192355Z AUTO 29005G12KT 10SM CLR 29/21 A2980 RMK AO2
KICL 192335Z AUTO 29010KT 10SM CLR 30/22 A2980 RMK AO2
KICL 192315Z AUTO 30007KT 10SM CLR 30/21 A2979 RMK AO2
KICL 192255Z AUTO 30008G13KT 10SM CLR 30/21 A2980 RMK AO2
KICL 192235Z AUTO 29007KT 10SM CLR 30/22 A2980 RMK AO2
KICL 192215Z AUTO 28009KT 10SM CLR 30/21 A2980 RMK AO2
KICL 192155Z AUTO 29009G14KT 10SM CLR 31/21 A2981 RMK AO2
KICL 192135Z AUTO 27011KT 10SM CLR 31/21 A2981 RMK AO2
KICL 192115Z AUTO 27008KT 10SM CLR 31/21 A2981 RMK AO2
KICL 192055Z AUTO 29008KT 10SM CLR 31/20 A2981 RMK AO2
KICL 192035Z AUTO 29009G16KT 10SM CLR 31/20 A2981 RMK AO2
KICL 192015Z AUTO 30007G12KT 10SM CLR 31/20 A2982 RMK AO2
KICL 191955Z AUTO 30009G17KT 10SM CLR 31/19 A2982 RMK AO2
KICL 191935Z AUTO 28011G18KT 10SM CLR 31/20 A2981 RMK AO2
KICL 191915Z AUTO 31011G17KT 10SM CLR 31/21 A2981 RMK AO2
KICL 191855Z AUTO 30009G15KT 10SM CLR 31/23 A2981 RMK AO2
KICL 191835Z AUTO 30010KT 10SM FEW032 FEW039 31/23 A2982 RMK AO2
KICL 191815Z AUTO 28009G15KT 10SM FEW029 FEW036 31/24 A2981 RMK AO2
KICL 191755Z AUTO 30007G15KT 10SM FEW027 FEW034 31/24 A2982 RMK AO2
KICL 191735Z AUTO 25010KT 10SM SCT028 SCT034 30/24 A2983 RMK AO2
KICL 191715Z AUTO 31008G17KT 10SM FEW023 SCT028 BKN034 30/24 A2983 RMK AO2
KICL 191655Z AUTO 26010KT 10SM SCT024 SCT029 29/24 A2983 RMK AO2
KICL 191635Z AUTO 27010G17KT 10SM BKN026 29/24 A2982 RMK AO2
KICL 191615Z AUTO 23009KT 10SM FEW025 28/24 A2982 RMK AO2
KICL 191555Z AUTO 21007KT 170V230 10SM CLR 27/23 A2983 RMK AO2
KICL 191535Z AUTO 21005KT 10SM CLR 26/22 A2983 RMK AO2
KICL 191515Z AUTO 21004KT 10SM FEW055 26/22 A2983 RMK AO2
KICL 191455Z AUTO 20004KT 10SM SCT055 BKN065 24/21 A2983 RMK AO2 P0004
KICL 191435Z AUTO 00000KT 10SM FEW050 SCT065 23/20 A2984 RMK AO2
KICL 191415Z AUTO 26005G10KT 9SM -DZ FEW008 SCT035 BKN055 21/18 A2984 RMK AO2
KICL 191355Z AUTO 25013G20KT 2 1/2SM -RA BKN009 BKN022 OVC055 23/21 A2986 RMK AO2 P0009
KICL 191335Z AUTO 23010KT 6SM -DZ BKN008 BKN070 23/22 A2987 RMK AO2
KICL 191315Z AUTO 19009KT 8SM BKN007 BKN080 23/22 A2984 RMK AO2
KICL 191255Z AUTO 19006KT 9SM BKN007 BKN010 23/22 A2985 RMK AO2
KICL 191235Z AUTO 18005KT 8SM BKN009 22/22 A2985 RMK AO2
KICL 191215Z AUTO VRB04KT 9SM BKN008 22/21 A2986 RMK AO2
KICL 191155Z AUTO 00000KT 8SM BKN010 BKN013 22/21 A2986 RMK AO2
KICL 191135Z AUTO 00000KT 9SM SCT013 21/20 A2987 RMK AO2
KICL 191115Z AUTO 00000KT 9SM FEW013 21/21 A2987 RMK AO2
KICL 191055Z AUTO 00000KT 10SM FEW013 SCT120 21/20 A2986 RMK AO2
KICL 191035Z AUTO 00000KT 10SM FEW070 FEW120 22/21 A2986 RMK AO2
KICL 191015Z AUTO 18006KT 10SM FEW037 SCT046 BKN070 22/21 A2986 RMK AO2
KICL 190955Z AUTO 19006KT 10SM SCT036 BKN045 BKN050 21/20 A2987 RMK AO2
KICL 190935Z AUTO 21003KT 10SM SCT036 SCT042 BKN050 22/20 A2988 RMK AO2
KICL 190915Z AUTO 17004KT 10SM FEW044 FEW055 SCT100 21/20 A2987 RMK AO2
KICL 190855Z AUTO 00000KT 10SM FEW045 BKN100 21/20 A2989 RMK AO2
KICL 190835Z AUTO 00000KT 10SM FEW041 SCT050 BKN060 21/20 A2990 RMK AO2